메인 페이지
METAR-TAF:

METAR-TAF

공항 :

로도스 섬, 그리스

위도: 36-24N, 경도: 028-05E, 고도: 4m

현재 날씨관측

예보는 34분 전, 15:20시(UTC)에 발표되었습니다.
3kt
온도 20°C
습도 83%
기압 1016 hPa
시정 10km 이상
고도 2000ft 상공 구름 조금, 타워링 적운.

METAR: LGRP 211520Z 19003KT 9999 FEW020TCU 20/17 Q1016 NOSIG

시각: 18:54 (15:54 UTC)

예보

예보는 4 시간 54분 전, 11:00시(UTC)에 발표되었습니다.
예보 대상 시간: 21일 12시부터 22일 12시까지 (UTC)
여러 방향의 바람 5kt
시정 10km 이상
고도 1000ft 상공 구름 조금
고도 2500ft 상공 구름 보통
확률 40% :
일시적
21일 12시부터 22일 09시까지 (UTC)
시정: 5000m
고도 1000ft 상공 구름 조금
고도 1800ft 상공 구름 조금, 타워링 적운.
고도 2500ft 상공 구름 많음
확률 40% :
일시적
21일 12시부터 21일 21시까지 (UTC)
시정: 3000m
고도 1500ft 상공 구름 보통
고도 1800ft 상공 구름 조금, 적란운.
고도 2000ft 상공 구름 많음
뇌우, 비

TAF: LGRP 211100Z 2112/2212 VRB05KT 9999 FEW010 SCT025 PROB40 TEMPO 2112/2209 5000 RA FEW010 FEW018TCU BKN025 PROB40 TEMPO 2112/2121 3000 TSRA SCT015 FEW018CB BKN020

4,000개 이상의 공항 관측 자료 및 예보 (METAR 및 TAF 보고).

지도상에서 검색 가능한 기상관측소가 노란 점과 빨간 점으로 표시되어 있습니다.

기상관측소 명을 보려면 표시 위로 마우스를 이동하세요.

날씨 관측과 예보를 보려면 클릭하세요.

지도 변경 : 확대하려면 엑스 표시가 있는 녹색 버튼, 축소하려면 빼기 표시가 있는 녹색 버튼, 다음 페이지의 지도를 보려면 녹색 화살표를 클릭하세요.


METAR-TAF: